createdAt,value
2022-11-04T00:00:29.995Z,99449.72
2022-11-04T00:02:58.377Z,99448.56
2022-11-04T00:05:36.833Z,99450.06
2022-11-04T00:08:21.998Z,99454.03
2022-11-04T00:11:13.042Z,99465.13
2022-11-04T00:13:40.808Z,99464.44
2022-11-04T00:16:26.812Z,99459.50
2022-11-04T00:18:55.278Z,99470.75
2022-11-04T00:21:40.778Z,99481.16
2022-11-04T00:24:28.436Z,99477.69
2022-11-04T00:27:14.764Z,99480.84
2022-11-04T00:29:42.613Z,99500.84
2022-11-04T00:32:28.224Z,99482.97
2022-11-04T00:34:56.762Z,99493.25
2022-11-04T00:37:24.557Z,99498.88
2022-11-04T00:39:52.245Z,99505.16
2022-11-04T00:42:21.400Z,99490.94
2022-11-04T00:44:49.252Z,99474.09
2022-11-04T00:47:17.116Z,99504.16
2022-11-04T00:49:44.863Z,99502.69
2022-11-04T00:52:12.646Z,99502.34
2022-11-04T00:54:40.419Z,99504.81
2022-11-04T00:57:10.401Z,99506.97
2022-11-04T00:59:39.883Z,99513.09
2022-11-04T01:02:08.186Z,99523.00
2022-11-04T01:04:36.288Z,99527.84
2022-11-04T01:07:04.708Z,99523.19
2022-11-04T01:09:32.593Z,99535.94
2022-11-04T01:12:00.351Z,99557.28
2022-11-04T01:14:28.114Z,99548.03
2022-11-04T01:16:57.321Z,99548.19
2022-11-04T01:19:25.091Z,99547.19
2022-11-04T01:21:53.619Z,99549.19
2022-11-04T01:24:21.394Z,99562.09
2022-11-04T01:26:49.133Z,99561.91
2022-11-04T01:29:16.919Z,99559.44
2022-11-04T01:31:44.791Z,99570.38
2022-11-04T01:34:13.917Z,99571.69
2022-11-04T01:36:41.771Z,99582.28
2022-11-04T01:39:10.178Z,99580.97
2022-11-04T01:41:38.059Z,99582.63
2022-11-04T01:44:47.750Z,99578.13
2022-11-04T01:47:18.937Z,99579.78
2022-11-04T01:49:51.662Z,99595.19
2022-11-04T01:52:26.590Z,99588.56
2022-11-04T01:54:57.956Z,99596.19
2022-11-04T01:57:30.642Z,99593.69
2022-11-04T02:00:02.595Z,99596.50
2022-11-04T02:02:47.444Z,99593.19
2022-11-04T02:05:17.813Z,99594.50
2022-11-04T02:07:45.998Z,99595.66
2022-11-04T02:10:14.303Z,99589.72
2022-11-04T02:12:49.892Z,99597.81
2022-11-04T02:15:21.910Z,99593.34
2022-11-04T02:18:11.127Z,99596.16
2022-11-04T02:21:01.090Z,99591.88
2022-11-04T02:23:59.281Z,99579.63
2022-11-04T02:26:59.824Z,99575.97
2022-11-04T02:29:37.662Z,99577.97
2022-11-04T02:32:17.893Z,99576.63
2022-11-04T02:34:57.037Z,99557.47
2022-11-04T02:37:35.020Z,99574.00
2022-11-04T02:40:14.694Z,99581.09
2022-11-04T02:42:51.663Z,99583.25
2022-11-04T02:45:24.085Z,99582.94
2022-11-04T02:47:56.337Z,99572.16
2022-11-04T02:50:32.446Z,99579.94
2022-11-04T02:53:05.087Z,99578.13
2022-11-04T02:55:38.779Z,99572.34
2022-11-04T02:58:12.161Z,99577.13
2022-11-04T03:00:44.612Z,99571.84
2022-11-04T03:03:16.373Z,99575.31
2022-11-04T03:05:49.318Z,99564.06
2022-11-04T03:08:21.460Z,99549.84
2022-11-04T03:10:54.042Z,99570.19
2022-11-04T03:13:25.863Z,99566.41
2022-11-04T03:15:59.697Z,99561.25
2022-11-04T03:18:34.479Z,99562.25
2022-11-04T03:21:04.902Z,99561.06
2022-11-04T03:23:33.354Z,99551.84
2022-11-04T03:26:09.697Z,99559.59
2022-11-04T03:28:45.987Z,99556.09
2022-11-04T03:31:24.982Z,99552.47
2022-11-04T03:33:55.023Z,99564.72
2022-11-04T03:36:24.412Z,99557.13
2022-11-04T03:38:53.670Z,99558.75
2022-11-04T03:41:27.803Z,99564.72
2022-11-04T03:43:55.604Z,99559.75
2022-11-04T03:46:26.046Z,99557.09
2022-11-04T03:48:54.522Z,99556.13
2022-11-04T03:51:22.357Z,99563.38
2022-11-04T03:53:53.029Z,99553.47
2022-11-04T03:56:55.793Z,99565.03
2022-11-04T03:59:49.058Z,99564.22
2022-11-04T04:02:22.212Z,99567.34
2022-11-04T04:04:57.772Z,99563.53
2022-11-04T04:07:32.742Z,99570.66
2022-11-04T04:10:25.181Z,99565.50
2022-11-04T04:12:57.248Z,99574.28
2022-11-04T04:15:30.708Z,99572.63
2022-11-04T04:18:04.220Z,99567.34
2022-11-04T04:20:35.026Z,99562.03
2022-11-04T04:23:27.962Z,99562.56
2022-11-04T04:26:15.981Z,99560.06
2022-11-04T04:28:45.017Z,99565.34
2022-11-04T04:31:35.166Z,99563.69
2022-11-04T04:34:04.626Z,99566.81
2022-11-04T04:36:34.621Z,99572.47
2022-11-04T04:39:24.495Z,99566.31
2022-11-04T04:42:11.185Z,99579.72
2022-11-04T04:45:01.788Z,99581.53
2022-11-04T04:47:34.313Z,99589.13
2022-11-04T04:50:03.558Z,99585.66
2022-11-04T04:52:33.198Z,99577.22
2022-11-04T04:55:01.034Z,99579.00
2022-11-04T04:57:28.981Z,99581.50
2022-11-04T04:59:56.705Z,99580.97
2022-11-04T05:02:24.442Z,99589.75
2022-11-04T05:04:52.229Z,99578.66
2022-11-04T05:07:21.529Z,99573.72
2022-11-04T05:09:51.934Z,99574.84
2022-11-04T05:12:21.179Z,99576.81
2022-11-04T05:14:48.997Z,99573.97
2022-11-04T05:17:16.748Z,99574.47
2022-11-04T05:19:44.472Z,99580.06
2022-11-04T05:22:12.205Z,99585.34
2022-11-04T05:24:41.277Z,99573.03
2022-11-04T05:27:08.987Z,99596.06
2022-11-04T05:29:36.713Z,99589.69
2022-11-04T05:32:04.576Z,99576.56
2022-11-04T05:34:32.306Z,99590.47
2022-11-04T05:37:00.687Z,99590.81
2022-11-04T05:39:28.436Z,99602.66
2022-11-04T05:41:57.526Z,99594.38
2022-11-04T05:44:25.273Z,99589.38
2022-11-04T05:46:53.013Z,99610.44
2022-11-04T05:49:20.757Z,99562.41
2022-11-04T05:51:48.473Z,99601.53
2022-11-04T05:54:16.182Z,99582.16
2022-11-04T05:56:43.892Z,99601.53
2022-11-04T05:59:12.934Z,99603.34
2022-11-04T06:01:42.844Z,99600.34
2022-11-04T06:04:15.598Z,99604.94
2022-11-04T06:06:43.703Z,99603.97
2022-11-04T06:09:11.881Z,99587.34
2022-11-04T06:11:40.211Z,99612.00
2022-11-04T06:14:07.932Z,99620.59
2022-11-04T06:16:37.013Z,99619.75
2022-11-04T06:19:08.599Z,99618.09
2022-11-04T06:21:39.843Z,99627.84
2022-11-04T06:24:07.635Z,99626.47
2022-11-04T06:26:35.362Z,99636.91
2022-11-04T06:29:03.115Z,99634.09
2022-11-04T06:31:30.869Z,99632.75
2022-11-04T06:33:59.909Z,99648.06
2022-11-04T06:36:27.651Z,99653.53
2022-11-04T06:38:59.918Z,99651.03
2022-11-04T06:41:30.997Z,99653.34
2022-11-04T06:43:58.705Z,99655.00
2022-11-04T06:46:29.134Z,99658.00
2022-11-04T06:48:57.841Z,99655.06
2022-11-04T06:51:27.076Z,99653.94
2022-11-04T06:53:54.836Z,99659.72
2022-11-04T06:56:22.632Z,99660.09
2022-11-04T06:58:50.819Z,99655.50
2022-11-04T07:01:22.133Z,99667.06
2022-11-04T07:03:50.956Z,99669.25
2022-11-04T07:06:19.268Z,99670.47
2022-11-04T07:08:48.655Z,99674.47
2022-11-04T07:11:17.074Z,99680.28
2022-11-04T07:13:44.918Z,99679.44
2022-11-04T07:16:12.680Z,99681.09
2022-11-04T07:18:40.662Z,99698.63
2022-11-04T07:21:10.195Z,99673.72
2022-11-04T07:23:38.334Z,99690.31
2022-11-04T07:26:08.849Z,99705.78
2022-11-04T07:28:37.301Z,99709.09
2022-11-04T07:31:07.481Z,99710.53
2022-11-04T07:33:35.503Z,99716.13
2022-11-04T07:36:06.171Z,99727.25
2022-11-04T07:38:33.927Z,99727.94
2022-11-04T07:41:02.566Z,99733.22
2022-11-04T07:43:32.242Z,99733.75
2022-11-04T07:46:01.433Z,99739.72
2022-11-04T07:48:29.205Z,99757.22
2022-11-04T07:50:58.819Z,99756.41
2022-11-04T07:53:26.646Z,99753.44
2022-11-04T07:55:54.377Z,99759.91
2022-11-04T07:58:22.597Z,99751.97
2022-11-04T08:00:51.724Z,99759.22
2022-11-04T08:03:19.489Z,99759.75
2022-11-04T08:05:47.277Z,99751.00
2022-11-04T08:08:14.962Z,99760.28
2022-11-04T08:10:42.710Z,99753.84
2022-11-04T08:13:10.904Z,99763.28
2022-11-04T08:15:38.909Z,99761.63
2022-11-04T08:18:07.949Z,99761.94
2022-11-04T08:20:36.542Z,99760.97
2022-11-04T08:23:04.484Z,99754.69
2022-11-04T08:25:32.227Z,99750.22
2022-11-04T08:28:01.278Z,99759.97
2022-11-04T08:30:29.179Z,99759.31
2022-11-04T08:32:56.897Z,99757.88
2022-11-04T08:35:26.478Z,99756.75
2022-11-04T08:37:54.174Z,99752.47
2022-11-04T08:40:21.846Z,99755.47
2022-11-04T08:42:49.555Z,99754.81
2022-11-04T08:45:17.606Z,99752.34
2022-11-04T08:47:45.448Z,99754.34
2022-11-04T08:50:13.329Z,99758.16
2022-11-04T08:52:42.503Z,99763.47
2022-11-04T08:55:11.566Z,99764.78
2022-11-04T08:57:39.318Z,99765.00
2022-11-04T09:00:08.084Z,99757.88
2022-11-04T09:02:35.842Z,99758.34
2022-11-04T09:05:03.809Z,99763.78
2022-11-04T09:07:31.519Z,99762.28
2022-11-04T09:10:02.081Z,99760.63
2022-11-04T09:12:29.821Z,99766.44
2022-11-04T09:14:57.526Z,99767.94
2022-11-04T09:17:25.284Z,99770.28
2022-11-04T09:19:53.064Z,99764.53
2022-11-04T09:22:20.814Z,99756.59
2022-11-04T09:24:48.816Z,99770.19
2022-11-04T09:27:17.933Z,99761.78
2022-11-04T09:29:46.173Z,99755.50
2022-11-04T09:32:13.892Z,99752.84
2022-11-04T09:34:42.168Z,99742.44
2022-11-04T09:37:09.897Z,99754.03
2022-11-04T09:39:37.611Z,99760.16
2022-11-04T09:42:18.373Z,99767.78
2022-11-04T09:45:19.951Z,99760.53
2022-11-04T09:47:43.864Z,99767.34
2022-11-04T09:50:19.963Z,99769.34
2022-11-04T09:52:53.241Z,99766.53
2022-11-04T09:55:25.807Z,99756.28
2022-11-04T09:57:56.335Z,99762.06
2022-11-04T10:00:26.418Z,99752.13
2022-11-04T10:03:05.274Z,99778.63
2022-11-04T10:05:44.100Z,99783.75
2022-11-04T10:08:37.778Z,99790.72
2022-11-04T10:11:11.824Z,99793.84
2022-11-04T10:13:53.461Z,99794.50
2022-11-04T10:16:41.888Z,99796.16
2022-11-04T10:19:27.242Z,99784.41
2022-11-04T10:22:03.772Z,99792.19
2022-11-04T10:24:42.635Z,99793.84
2022-11-04T10:27:17.455Z,99791.84
2022-11-04T10:29:48.329Z,99791.94
2022-11-04T10:32:23.207Z,99788.81
2022-11-04T10:34:56.828Z,99794.53
2022-11-04T10:37:25.953Z,99794.97
2022-11-04T10:40:01.312Z,99789.31
2022-11-04T10:42:29.080Z,99798.28
2022-11-04T10:44:56.814Z,99806.72
2022-11-04T10:47:41.929Z,99801.59
2022-11-04T10:50:29.870Z,99810.16
2022-11-04T10:53:12.613Z,99811.13
2022-11-04T10:55:47.986Z,99814.78
2022-11-04T10:58:24.063Z,99807.34
2022-11-04T11:00:52.949Z,99821.28
2022-11-04T11:03:31.160Z,99830.56
2022-11-04T11:06:16.570Z,99829.91
2022-11-04T11:09:12.694Z,99833.00
2022-11-04T11:12:09.834Z,99831.13
2022-11-04T11:15:10.878Z,99844.09
2022-11-04T11:18:32.558Z,99842.16
2022-11-04T11:21:24.119Z,99850.78
2022-11-04T11:24:17.215Z,99850.94
2022-11-04T11:30:57.513Z,99844.84
2022-11-04T11:33:51.039Z,99836.56
2022-11-04T11:36:44.655Z,99830.09
2022-11-04T11:39:31.790Z,99829.25
2022-11-04T11:42:24.477Z,99841.53
2022-11-04T11:45:10.753Z,99838.41
2022-11-04T11:47:55.077Z,99841.25
2022-11-04T11:50:58.733Z,99841.91
2022-11-04T11:53:56.300Z,99851.69
2022-11-04T11:57:11.991Z,99844.19
2022-11-04T12:03:01.258Z,99856.66
2022-11-04T12:11:58.847Z,99859.81
2022-11-04T12:14:42.493Z,99858.16
2022-11-04T12:17:27.333Z,99853.00
2022-11-04T12:20:54.821Z,99853.81
2022-11-04T12:23:29.445Z,99850.78
2022-11-04T12:30:13.353Z,99862.50
2022-11-04T12:32:54.873Z,99864.22
2022-11-04T12:35:33.777Z,99869.53
2022-11-04T12:38:18.675Z,99865.72
2022-11-04T12:41:18.136Z,99864.75
2022-11-04T12:43:48.464Z,99867.91
2022-11-04T12:46:26.330Z,99866.09
2022-11-04T12:49:09.555Z,99866.44
2022-11-04T12:51:49.409Z,99869.28
2022-11-04T12:54:42.681Z,99875.75
2022-11-04T12:57:19.864Z,99877.69
2022-11-04T13:00:06.383Z,99877.03
2022-11-04T13:02:41.470Z,99880.06
2022-11-04T13:05:25.786Z,99885.69
2022-11-04T13:08:03.371Z,99880.72
2022-11-04T13:10:42.219Z,99862.13
2022-11-04T13:13:21.463Z,99819.38
2022-11-04T13:15:59.303Z,99884.34
2022-11-04T13:18:32.843Z,99835.94
2022-11-04T13:21:05.328Z,99885.50
2022-11-04T13:23:40.597Z,99888.97
2022-11-04T13:26:16.220Z,99858.97
2022-11-04T13:28:56.147Z,99833.56
2022-11-04T13:31:36.023Z,99840.72
2022-11-04T13:34:14.902Z,99897.56
2022-11-04T13:36:50.865Z,99908.06
2022-11-04T13:39:27.186Z,99896.13
2022-11-04T13:42:25.567Z,99914.34
2022-11-04T13:44:57.897Z,99917.19
2022-11-04T13:47:30.453Z,99918.19
2022-11-04T13:50:00.092Z,99922.34
2022-11-04T13:52:32.216Z,99922.66
2022-11-04T13:55:02.792Z,99923.50
2022-11-04T13:57:32.837Z,99928.63
2022-11-04T14:00:20.145Z,99933.25
2022-11-04T14:02:52.147Z,99931.09
2022-11-04T14:06:10.707Z,99937.72
2022-11-04T14:09:16.067Z,99931.59
2022-11-04T14:12:23.367Z,99905.56
2022-11-04T14:14:55.689Z,99932.25
2022-11-04T14:18:05.875Z,99941.53
2022-11-04T14:20:37.685Z,99934.56
2022-11-04T14:23:08.920Z,99937.22
2022-11-04T14:25:44.271Z,99944.03
2022-11-04T14:28:26.731Z,99961.59
2022-11-04T14:30:57.307Z,99965.72
2022-11-04T14:33:36.729Z,99974.53
2022-11-04T14:36:28.521Z,99976.66
2022-11-04T14:38:59.527Z,99982.97
2022-11-04T14:41:58.494Z,99988.78
2022-11-04T14:44:49.897Z,99979.78
2022-11-04T14:47:22.689Z,99986.59
2022-11-04T14:49:54.426Z,99992.25
2022-11-04T14:52:29.917Z,100003.69
2022-11-04T14:55:06.893Z,100005.84
2022-11-04T14:57:40.694Z,100008.47
2022-11-04T15:00:29.032Z,100011.28
2022-11-04T15:03:05.952Z,100015.59
2022-11-04T15:05:36.822Z,100023.56
2022-11-04T15:08:26.151Z,100025.53
2022-11-04T15:10:59.714Z,100025.84
2022-11-04T15:13:29.203Z,100029.19
2022-11-04T15:15:59.366Z,100020.38
2022-11-04T15:18:29.166Z,100036.47
2022-11-04T15:20:59.281Z,100033.13
2022-11-04T15:23:31.374Z,100037.13
2022-11-04T15:26:00.158Z,100046.06
2022-11-04T15:28:36.437Z,100055.00
2022-11-04T15:31:20.570Z,100058.34
2022-11-04T15:33:51.472Z,100063.63
2022-11-04T15:36:21.963Z,100060.31
2022-11-04T15:38:53.845Z,100078.72
2022-11-04T15:41:38.763Z,100077.72
2022-11-04T15:44:17.273Z,100071.22
2022-11-04T15:46:50.652Z,100081.84
2022-11-04T15:49:26.294Z,100089.13
2022-11-04T15:51:58.717Z,100097.06
2022-11-04T15:54:29.767Z,100099.03
2022-11-04T15:57:00.937Z,100094.72
2022-11-04T15:59:33.674Z,100106.66
2022-11-04T16:02:03.536Z,100106.97
2022-11-04T16:04:49.012Z,100114.41
2022-11-04T16:07:25.798Z,100110.25
2022-11-04T16:09:55.378Z,100111.88
2022-11-04T16:12:28.603Z,100108.84
2022-11-04T16:14:58.941Z,100115.44
2022-11-04T16:17:28.538Z,100119.88
2022-11-04T16:19:58.863Z,100118.66
2022-11-04T16:22:31.732Z,100127.59
2022-11-04T16:25:02.371Z,100122.41
2022-11-04T16:27:33.186Z,100123.09
2022-11-04T16:30:17.554Z,100125.50
2022-11-04T16:32:47.850Z,100138.59
2022-11-04T16:35:21.762Z,100142.53
2022-11-04T16:37:50.707Z,100155.31
2022-11-04T16:40:18.852Z,100156.31
2022-11-04T16:42:47.733Z,100144.72
2022-11-04T16:45:25.034Z,100153.34
2022-11-04T16:47:53.497Z,100151.69
2022-11-04T16:50:21.532Z,100150.03
2022-11-04T16:52:49.285Z,100158.34
2022-11-04T16:55:17.829Z,100155.00
2022-11-04T16:57:46.104Z,100161.00
2022-11-04T17:00:20.940Z,100155.31
2022-11-04T17:02:49.553Z,100165.38
2022-11-04T17:05:18.259Z,100163.72
2022-11-04T17:07:53.664Z,100165.69
2022-11-04T17:10:24.904Z,100168.31
2022-11-04T17:12:52.674Z,100173.38
2022-11-04T17:15:22.476Z,100174.38
2022-11-04T17:17:50.211Z,100170.97
2022-11-04T17:20:19.170Z,100172.56
2022-11-04T17:22:48.854Z,100189.66
2022-11-04T17:25:19.718Z,100191.75
2022-11-04T17:27:47.759Z,100205.16
2022-11-04T17:30:16.955Z,100205.97
2022-11-04T17:32:47.090Z,100195.47
2022-11-04T17:35:15.727Z,100217.41
2022-11-04T17:37:44.258Z,100215.59
2022-11-04T17:40:15.892Z,100222.41
2022-11-04T17:43:01.964Z,100223.94
2022-11-04T17:45:32.395Z,100233.53
2022-11-04T17:48:04.779Z,100234.38
2022-11-04T17:50:33.202Z,100229.81
2022-11-04T17:53:01.195Z,100240.31
2022-11-04T17:55:28.906Z,100250.06
2022-11-04T17:57:57.146Z,100252.91
2022-11-04T18:00:29.477Z,100252.91
2022-11-04T18:02:57.502Z,100246.66
2022-11-04T18:05:26.580Z,100256.06
2022-11-04T18:07:58.275Z,100257.72
2022-11-04T18:10:25.982Z,100268.19
2022-11-04T18:12:53.713Z,100265.66
2022-11-04T18:15:22.224Z,100271.94
2022-11-04T18:17:50.751Z,100270.97
2022-11-04T18:20:18.533Z,100275.56
2022-11-04T18:22:48.146Z,100272.78
2022-11-04T18:25:15.870Z,100274.44
2022-11-04T18:27:43.634Z,100266.66
2022-11-04T18:30:12.522Z,100276.72
2022-11-04T18:32:40.241Z,100274.22
2022-11-04T18:35:09.016Z,100259.50
2022-11-04T18:37:36.792Z,100274.53
2022-11-04T18:40:07.175Z,100280.09
2022-11-04T18:42:35.572Z,100287.34
2022-11-04T18:45:03.554Z,100280.03
2022-11-04T18:47:31.393Z,100291.28
2022-11-04T18:49:59.059Z,100290.63
2022-11-04T18:52:26.731Z,100295.72
2022-11-04T18:54:54.416Z,100292.28
2022-11-04T18:57:23.563Z,100292.09
2022-11-04T18:59:51.282Z,100293.91
2022-11-04T19:02:23.260Z,100299.38
2022-11-04T19:04:51.606Z,100307.16
2022-11-04T19:07:19.874Z,100302.88
2022-11-04T19:09:48.183Z,100292.56
2022-11-04T19:12:33.659Z,100299.38
2022-11-04T19:15:03.924Z,100297.88
2022-11-04T19:17:31.928Z,100281.66
2022-11-04T19:19:59.739Z,100308.59
2022-11-04T19:22:27.499Z,100314.19
2022-11-04T19:24:55.284Z,100321.28
2022-11-04T19:27:24.902Z,100323.09
2022-11-04T19:29:52.857Z,100333.00
2022-11-04T19:32:21.957Z,100336.47
2022-11-04T19:34:50.950Z,100335.63
2022-11-04T19:37:18.814Z,100351.81
2022-11-04T19:39:46.498Z,100345.16
2022-11-04T19:42:32.112Z,100339.59
2022-11-04T19:44:59.827Z,100354.22
2022-11-04T19:47:29.018Z,100356.31
2022-11-04T19:49:56.776Z,100359.09
2022-11-04T19:52:24.478Z,100359.09
2022-11-04T19:54:52.272Z,100358.25
2022-11-04T19:57:19.965Z,100346.03
2022-11-04T19:59:47.938Z,100359.09
2022-11-04T20:02:16.136Z,100361.88
2022-11-04T20:04:46.125Z,100368.69
2022-11-04T20:07:13.794Z,100370.50
2022-11-04T20:09:41.584Z,100362.72
2022-11-04T20:12:26.898Z,100378.59
2022-11-04T20:14:56.059Z,100386.38
2022-11-04T20:17:24.300Z,100387.22
2022-11-04T20:19:53.369Z,100390.00
2022-11-04T20:22:21.091Z,100394.47
2022-11-04T20:24:48.868Z,100390.00
2022-11-04T20:27:16.691Z,100392.78
2022-11-04T20:29:44.584Z,100405.06
2022-11-04T20:32:12.342Z,100375.84
2022-11-04T20:34:40.069Z,100412.72
2022-11-04T20:37:09.610Z,100418.00
2022-11-04T20:39:37.336Z,100420.38
2022-11-04T20:42:05.452Z,100431.66
2022-11-04T20:44:33.717Z,100431.38
2022-11-04T20:47:01.487Z,100439.00
2022-11-04T20:49:29.809Z,100445.25
2022-11-04T20:51:57.570Z,100441.13
2022-11-04T20:54:26.711Z,100449.88
2022-11-04T20:56:54.458Z,100452.69
2022-11-04T20:59:22.170Z,100423.19
2022-11-04T21:01:50.101Z,100455.72
2022-11-04T21:04:19.742Z,100445.44
2022-11-04T21:06:48.898Z,100438.63
2022-11-04T21:09:19.055Z,100478.28
2022-11-04T21:11:48.290Z,100476.59
2022-11-04T21:14:19.268Z,100484.53
2022-11-04T21:16:47.511Z,100485.78
2022-11-04T21:19:15.911Z,100491.66
2022-11-04T21:21:45.030Z,100481.34
2022-11-04T21:24:14.537Z,100492.47
2022-11-04T21:26:43.231Z,100492.06
2022-11-04T21:29:15.228Z,100499.88
2022-11-04T21:31:43.973Z,100511.44
2022-11-04T21:34:12.238Z,100513.94
2022-11-04T21:36:40.358Z,100513.94
2022-11-04T21:39:10.886Z,100477.88
2022-11-04T21:41:38.661Z,100522.28
2022-11-04T21:44:09.311Z,100518.50
2022-11-04T21:46:38.421Z,100526.72
2022-11-04T21:49:06.533Z,100522.72
2022-11-04T21:51:35.271Z,100531.50
2022-11-04T21:54:06.204Z,100533.16
2022-11-04T21:56:33.982Z,100540.41
2022-11-04T21:59:02.407Z,100543.34
2022-11-04T22:01:31.723Z,100551.41
2022-11-04T22:04:02.723Z,100552.53
2022-11-04T22:06:35.158Z,100560.47
2022-11-04T22:09:05.238Z,100559.63
2022-11-04T22:11:36.311Z,100527.75
2022-11-04T22:14:05.969Z,100547.66
2022-11-04T22:16:36.081Z,100549.59
2022-11-04T22:19:06.957Z,100552.25
2022-11-04T22:21:35.231Z,100528.28
2022-11-04T22:24:02.939Z,100560.47
2022-11-04T22:26:32.437Z,100557.16
2022-11-04T22:29:00.671Z,100564.91
2022-11-04T22:31:30.140Z,100568.53
2022-11-04T22:33:58.397Z,100572.31
2022-11-04T22:36:28.021Z,100556.56
2022-11-04T22:38:56.187Z,100561.31
2022-11-04T22:41:26.169Z,100563.81
2022-11-04T22:43:53.947Z,100561.56
2022-11-04T22:46:23.984Z,100557.69
2022-11-04T22:48:51.693Z,100569.78
2022-11-04T22:51:19.525Z,100575.22
2022-11-04T22:53:56.740Z,100562.13
2022-11-04T22:56:25.794Z,100583.84
2022-11-04T22:58:54.154Z,100578.81
2022-11-04T23:01:22.303Z,100580.63
2022-11-04T23:03:51.852Z,100584.25
2022-11-04T23:06:20.005Z,100587.31
2022-11-04T23:08:49.193Z,100573.94
2022-11-04T23:11:36.929Z,100584.25
2022-11-04T23:14:22.773Z,100588.13
2022-11-04T23:17:09.649Z,100598.69
2022-11-04T23:19:38.101Z,100603.28
2022-11-04T23:22:23.628Z,100604.25
2022-11-04T23:25:09.454Z,100614.16
2022-11-04T23:27:57.933Z,100613.31
2022-11-04T23:30:27.614Z,100613.59
2022-11-04T23:32:57.511Z,100585.72
2022-11-04T23:35:45.469Z,100606.91
2022-11-04T23:38:13.299Z,100609.16
2022-11-04T23:40:42.600Z,100609.16
2022-11-04T23:43:09.879Z,100612.50
2022-11-04T23:45:55.318Z,100617.78
2022-11-04T23:48:40.678Z,100616.69
2022-11-04T23:51:29.156Z,100614.31
2022-11-04T23:54:14.288Z,100601.59
2022-11-04T23:57:00.634Z,100594.50
2022-11-04T23:59:45.838Z,100624.03
